createdAt,value
2019-03-25T00:01:38.663Z,4.87
2019-03-25T00:04:09.435Z,5.30
2019-03-25T00:06:40.100Z,4.87
2019-03-25T00:09:11.257Z,6.17
2019-03-25T00:11:42.238Z,6.00
2019-03-25T00:14:13.313Z,5.27
2019-03-25T00:16:44.256Z,5.50
2019-03-25T00:19:15.196Z,5.97
2019-03-25T00:21:46.122Z,5.70
2019-03-25T00:24:16.903Z,6.03
2019-03-25T00:26:47.851Z,5.83
2019-03-25T00:29:19.383Z,5.97
2019-03-25T00:31:50.370Z,6.30
2019-03-25T00:34:21.026Z,4.90
2019-03-25T00:36:51.966Z,5.37
2019-03-25T00:39:23.015Z,4.97
2019-03-25T00:41:53.762Z,5.83
2019-03-25T00:44:24.395Z,4.27
2019-03-25T00:46:55.074Z,5.63
2019-03-25T00:49:25.991Z,5.10
2019-03-25T00:51:56.703Z,4.90
2019-03-25T00:54:27.411Z,4.70
2019-03-25T00:56:58.579Z,4.10
2019-03-25T00:59:29.363Z,5.43
2019-03-25T01:02:00.601Z,4.87
2019-03-25T01:04:31.250Z,4.60
2019-03-25T01:07:02.023Z,4.80
2019-03-25T01:09:33.024Z,4.40
2019-03-25T01:12:04.011Z,5.53
2019-03-25T01:14:34.783Z,4.60
2019-03-25T01:17:05.601Z,4.07
2019-03-25T01:19:36.238Z,5.60
2019-03-25T01:22:07.311Z,4.50
2019-03-25T01:24:38.127Z,4.90
2019-03-25T01:27:08.775Z,5.10
2019-03-25T01:29:39.457Z,4.77
2019-03-25T01:32:10.188Z,4.00
2019-03-25T01:34:41.404Z,4.63
2019-03-25T01:37:12.073Z,4.93
2019-03-25T01:39:42.758Z,4.50
2019-03-25T01:42:13.424Z,4.90
2019-03-25T01:44:44.091Z,4.07
2019-03-25T01:47:14.733Z,5.10
2019-03-25T01:49:45.476Z,4.70
2019-03-25T01:52:16.220Z,4.23
2019-03-25T01:54:46.906Z,4.17
2019-03-25T01:57:17.537Z,4.33
2019-03-25T01:59:48.311Z,5.07
2019-03-25T02:02:18.976Z,4.27
2019-03-25T02:04:49.631Z,4.37
2019-03-25T02:07:20.297Z,4.67
2019-03-25T02:09:51.261Z,5.00
2019-03-25T02:12:21.917Z,5.40
2019-03-25T02:14:52.564Z,4.30
2019-03-25T02:17:23.570Z,4.90
2019-03-25T02:19:54.560Z,5.30
2019-03-25T02:22:25.672Z,7.40
2019-03-25T02:24:56.554Z,6.00
2019-03-25T02:27:27.211Z,6.50
2019-03-25T02:29:57.848Z,4.30
2019-03-25T02:32:28.838Z,4.90
2019-03-25T02:34:59.463Z,5.30
2019-03-25T02:37:30.492Z,6.87
2019-03-25T02:40:01.409Z,5.30
2019-03-25T02:42:32.080Z,4.73
2019-03-25T02:45:03.000Z,5.03
2019-03-25T02:47:33.629Z,5.10
2019-03-25T02:50:04.434Z,5.10
2019-03-25T02:52:35.621Z,5.30
2019-03-25T02:55:07.567Z,5.00
2019-03-25T02:57:38.220Z,5.53
2019-03-25T03:00:11.558Z,5.30
2019-03-25T03:02:42.185Z,5.03
2019-03-25T03:05:12.884Z,5.30
2019-03-25T03:07:44.235Z,5.13
2019-03-25T03:10:17.834Z,4.87
2019-03-25T03:12:48.494Z,5.33
2019-03-25T03:15:19.211Z,5.47
2019-03-25T03:17:50.212Z,4.70
2019-03-25T03:20:21.167Z,4.27
2019-03-25T03:22:52.190Z,4.50
2019-03-25T03:25:22.827Z,5.30
2019-03-25T03:27:53.770Z,4.20
2019-03-25T03:30:24.473Z,5.17
2019-03-25T03:32:55.516Z,4.27
2019-03-25T03:35:26.189Z,5.27
2019-03-25T03:37:56.830Z,3.83
2019-03-25T03:40:27.493Z,4.43
2019-03-25T03:42:58.147Z,5.23
2019-03-25T03:45:28.768Z,4.00
2019-03-25T03:47:59.428Z,4.40
2019-03-25T03:50:30.565Z,4.23
2019-03-25T03:53:01.607Z,5.13
2019-03-25T03:55:32.555Z,4.97
2019-03-25T03:58:03.319Z,4.30
2019-03-25T04:00:35.649Z,4.17
2019-03-25T04:03:06.394Z,4.40
2019-03-25T04:05:37.027Z,3.60
2019-03-25T04:08:07.658Z,4.07
2019-03-25T04:10:38.911Z,4.10
2019-03-25T04:13:09.596Z,3.70
2019-03-25T04:15:40.272Z,4.00
2019-03-25T04:18:10.931Z,4.13
2019-03-25T04:20:42.200Z,4.17
2019-03-25T04:23:12.840Z,3.83
2019-03-25T04:25:43.871Z,5.47
2019-03-25T04:28:21.633Z,4.17
2019-03-25T04:30:52.378Z,5.57
2019-03-25T04:33:23.704Z,4.73
2019-03-25T04:35:54.964Z,5.20
2019-03-25T04:38:25.716Z,5.50
2019-03-25T04:40:56.759Z,6.63
2019-03-25T04:43:27.725Z,6.30
2019-03-25T04:45:58.427Z,6.47
2019-03-25T04:48:29.288Z,7.60
2019-03-25T04:50:59.946Z,7.10
2019-03-25T04:53:31.069Z,6.90
2019-03-25T04:56:02.036Z,7.27
2019-03-25T04:58:32.682Z,7.70
2019-03-25T05:01:03.936Z,7.70
2019-03-25T05:03:34.935Z,7.43
2019-03-25T05:06:05.837Z,8.03
2019-03-25T05:08:36.501Z,7.90
2019-03-25T05:11:07.205Z,7.67
2019-03-25T05:13:38.224Z,8.00
2019-03-25T05:16:08.874Z,8.47
2019-03-25T05:18:39.535Z,9.47
2019-03-25T05:21:10.243Z,9.60
2019-03-25T05:23:40.901Z,10.50
2019-03-25T05:26:11.879Z,9.93
2019-03-25T05:28:42.854Z,9.80
2019-03-25T05:31:13.665Z,10.33
2019-03-25T05:33:44.340Z,9.43
2019-03-25T05:36:14.988Z,11.23
2019-03-25T05:38:45.716Z,11.70
2019-03-25T05:41:16.674Z,11.47
2019-03-25T05:43:47.365Z,12.40
2019-03-25T05:46:18.071Z,11.87
2019-03-25T05:48:48.830Z,12.80
2019-03-25T05:51:19.923Z,12.10
2019-03-25T05:53:50.667Z,11.47
2019-03-25T05:56:21.298Z,12.67
2019-03-25T05:58:51.969Z,12.47
2019-03-25T06:01:22.731Z,13.47
2019-03-25T06:03:53.393Z,12.87
2019-03-25T06:06:24.077Z,13.13
2019-03-25T06:08:54.719Z,13.90
2019-03-25T06:11:25.390Z,14.30
2019-03-25T06:13:56.112Z,14.50
2019-03-25T06:16:27.477Z,14.70
2019-03-25T06:18:58.162Z,13.97
2019-03-25T06:21:29.447Z,13.93
2019-03-25T06:24:00.682Z,12.50
2019-03-25T06:26:31.349Z,11.27
2019-03-25T06:29:02.327Z,12.57
2019-03-25T06:31:33.317Z,12.03
2019-03-25T06:34:03.970Z,11.23
2019-03-25T06:36:34.960Z,10.97
2019-03-25T06:39:06.759Z,11.37
2019-03-25T06:41:37.769Z,12.83
2019-03-25T06:44:08.442Z,12.80
2019-03-25T06:46:39.121Z,11.63
2019-03-25T06:49:09.836Z,10.87
2019-03-25T06:51:40.939Z,10.33
2019-03-25T06:57:59.680Z,7.00
2019-03-25T07:00:30.369Z,7.23
2019-03-25T07:03:01.058Z,5.97
2019-03-25T07:05:32.349Z,5.83
2019-03-25T07:08:03.042Z,5.10
2019-03-25T07:10:35.531Z,4.93
2019-03-25T07:13:07.356Z,3.33
2019-03-25T07:15:38.023Z,3.20
2019-03-25T07:18:08.802Z,4.07
2019-03-25T07:20:39.458Z,3.63
2019-03-25T07:23:10.121Z,3.97
2019-03-25T07:25:40.787Z,3.53
2019-03-25T07:28:11.459Z,4.17
2019-03-25T07:30:42.447Z,3.13
2019-03-25T07:33:13.115Z,3.20
2019-03-25T07:35:43.848Z,2.67
2019-03-25T07:38:14.488Z,3.10
2019-03-25T07:40:45.143Z,2.80
2019-03-25T07:43:15.860Z,2.67
2019-03-25T07:45:46.756Z,3.00
2019-03-25T07:48:17.782Z,2.60
2019-03-25T07:50:48.566Z,2.60
2019-03-25T07:53:19.188Z,3.23
2019-03-25T07:55:49.838Z,2.60
2019-03-25T07:58:20.509Z,2.90
2019-03-25T08:00:51.173Z,3.33
2019-03-25T08:03:22.179Z,3.33
2019-03-25T08:05:53.063Z,3.83
2019-03-25T08:08:23.959Z,3.53
2019-03-25T08:10:54.867Z,3.37
2019-03-25T08:13:25.977Z,4.20
2019-03-25T08:15:56.845Z,3.30
2019-03-25T08:18:27.475Z,3.93
2019-03-25T08:20:58.115Z,3.20
2019-03-25T08:23:29.142Z,3.23
2019-03-25T08:25:59.819Z,4.07
2019-03-25T08:28:30.481Z,4.40
2019-03-25T08:31:01.142Z,4.20
2019-03-25T08:33:32.131Z,3.90
2019-03-25T08:36:02.785Z,3.90
2019-03-25T08:38:34.030Z,3.93
2019-03-25T08:41:06.136Z,3.10
2019-03-25T08:43:36.760Z,2.87
2019-03-25T08:46:07.996Z,3.87
2019-03-25T08:48:39.267Z,3.43
2019-03-25T08:51:09.926Z,4.20
2019-03-25T08:53:40.630Z,4.23
2019-03-25T08:56:11.564Z,4.47
2019-03-25T08:58:42.577Z,4.23
2019-03-25T09:01:13.534Z,4.50
2019-03-25T09:03:44.250Z,4.70
2019-03-25T09:06:14.960Z,4.90
2019-03-25T09:08:45.639Z,4.83
2019-03-25T09:11:16.296Z,4.97
2019-03-25T09:13:46.937Z,4.23
2019-03-25T09:16:17.613Z,3.50
2019-03-25T09:18:48.572Z,3.80
2019-03-25T09:21:19.488Z,4.40
2019-03-25T09:23:50.496Z,3.03
2019-03-25T09:26:21.165Z,3.50
2019-03-25T09:28:52.017Z,3.97
2019-03-25T09:31:22.849Z,3.90
2019-03-25T09:33:54.071Z,4.23
2019-03-25T09:36:25.029Z,3.00
2019-03-25T09:38:55.658Z,3.87
2019-03-25T09:41:26.298Z,3.87
2019-03-25T09:43:56.993Z,3.53
2019-03-25T09:46:27.973Z,2.90
2019-03-25T09:48:59.045Z,3.20
2019-03-25T09:51:29.705Z,3.00
2019-03-25T09:54:00.398Z,2.63
2019-03-25T09:56:31.032Z,3.30
2019-03-25T09:59:01.699Z,3.20
2019-03-25T10:01:32.408Z,2.13
2019-03-25T10:04:03.050Z,2.27
2019-03-25T10:06:34.099Z,2.03
2019-03-25T10:09:09.093Z,1.63
2019-03-25T10:11:39.805Z,1.60
2019-03-25T10:14:10.913Z,1.50
2019-03-25T10:16:41.894Z,1.10
2019-03-25T10:19:12.529Z,1.37
2019-03-25T10:21:43.203Z,1.40
2019-03-25T10:24:13.898Z,1.60
2019-03-25T10:26:44.619Z,1.03
2019-03-25T10:29:15.261Z,1.10
2019-03-25T10:31:45.899Z,0.80
2019-03-25T10:34:16.915Z,0.60
2019-03-25T10:36:47.577Z,1.10
2019-03-25T10:39:18.661Z,1.03
2019-03-25T10:41:49.707Z,0.60
2019-03-25T10:44:20.752Z,0.60
2019-03-25T10:46:51.376Z,0.80
2019-03-25T10:49:22.085Z,0.80
2019-03-25T10:51:52.746Z,0.83
2019-03-25T10:54:23.400Z,1.50
2019-03-25T10:56:54.034Z,1.27
2019-03-25T10:59:24.755Z,1.23
2019-03-25T11:01:55.548Z,1.20
2019-03-25T11:04:26.226Z,1.60
2019-03-25T11:06:57.229Z,1.40
2019-03-25T11:09:27.876Z,1.10
2019-03-25T11:12:01.312Z,1.03
2019-03-25T11:14:31.961Z,1.30
2019-03-25T11:17:02.641Z,1.83
2019-03-25T11:19:33.298Z,1.30
2019-03-25T11:22:03.930Z,1.10
2019-03-25T11:24:34.928Z,1.57
2019-03-25T11:27:05.668Z,1.53
2019-03-25T11:29:36.298Z,1.50
2019-03-25T11:32:07.011Z,1.77
2019-03-25T11:34:37.677Z,1.97
2019-03-25T11:37:08.327Z,1.00
2019-03-25T11:39:38.999Z,1.10
2019-03-25T11:42:10.354Z,1.57
2019-03-25T11:44:41.110Z,1.67
2019-03-25T11:47:11.775Z,1.77
2019-03-25T11:49:44.486Z,1.70
2019-03-25T11:52:14.753Z,2.10
2019-03-25T11:54:45.556Z,2.20
2019-03-25T11:57:16.362Z,1.20
2019-03-25T11:59:47.022Z,1.20
2019-03-25T12:02:18.043Z,1.10
2019-03-25T12:04:48.696Z,1.10
2019-03-25T12:07:19.753Z,1.47
2019-03-25T12:09:51.022Z,1.27
2019-03-25T12:12:22.024Z,1.53
2019-03-25T12:14:52.954Z,1.47
2019-03-25T12:17:23.627Z,1.67
2019-03-25T12:19:54.258Z,2.10
2019-03-25T12:22:25.266Z,1.83
2019-03-25T12:24:55.930Z,1.60
2019-03-25T12:27:27.139Z,1.87
2019-03-25T12:29:57.835Z,1.33
2019-03-25T12:32:28.836Z,2.37
2019-03-25T12:34:59.523Z,1.77
2019-03-25T12:37:30.230Z,1.47
2019-03-25T12:40:00.887Z,1.63
2019-03-25T12:42:31.588Z,1.70
2019-03-25T12:45:02.232Z,1.20
2019-03-25T12:47:32.950Z,2.03
2019-03-25T12:50:03.708Z,2.70
2019-03-25T12:52:34.324Z,3.07
2019-03-25T12:55:05.848Z,2.40
2019-03-25T12:57:36.793Z,2.83
2019-03-25T13:00:08.077Z,2.30
2019-03-25T13:02:39.080Z,3.33
2019-03-25T13:05:10.211Z,2.70
2019-03-25T13:07:40.879Z,1.50
2019-03-25T13:10:11.913Z,1.83
2019-03-25T13:12:42.574Z,1.60
2019-03-25T13:15:13.444Z,1.90
2019-03-25T13:17:44.420Z,1.70
2019-03-25T13:20:15.264Z,1.50
2019-03-25T13:22:45.956Z,1.80
2019-03-25T13:25:17.136Z,1.90
2019-03-25T13:27:47.949Z,2.70
2019-03-25T13:30:19.575Z,2.20
2019-03-25T13:32:50.401Z,2.67
2019-03-25T13:35:21.047Z,1.70
2019-03-25T13:37:52.337Z,1.73
2019-03-25T13:40:22.975Z,1.70
2019-03-25T13:42:53.647Z,1.67
2019-03-25T13:45:24.376Z,1.30
2019-03-25T13:47:55.589Z,0.93
2019-03-25T13:50:26.631Z,0.90
2019-03-25T13:52:57.285Z,1.00
2019-03-25T13:55:28.225Z,0.77
2019-03-25T13:57:59.013Z,0.67
2019-03-25T14:00:41.243Z,1.10
2019-03-25T14:03:11.890Z,0.70
2019-03-25T14:05:42.638Z,0.70
2019-03-25T14:08:13.551Z,0.73
2019-03-25T14:10:44.230Z,0.70
2019-03-25T14:13:15.322Z,0.70
2019-03-25T14:15:45.994Z,0.60
2019-03-25T14:18:16.660Z,0.67
2019-03-25T14:20:48.162Z,1.10
2019-03-25T14:23:18.895Z,0.83
2019-03-25T14:25:49.531Z,0.77
2019-03-25T14:28:20.961Z,0.80
2019-03-25T14:30:51.589Z,1.20
2019-03-25T14:33:22.269Z,1.30
2019-03-25T14:35:52.908Z,1.30
2019-03-25T14:38:23.583Z,1.23
2019-03-25T14:40:54.247Z,0.90
2019-03-25T14:43:25.303Z,1.00
2019-03-25T14:45:56.594Z,0.83
2019-03-25T14:48:27.373Z,1.20
2019-03-25T14:50:58.004Z,1.20
2019-03-25T14:53:28.717Z,1.30
2019-03-25T14:55:59.698Z,1.07
2019-03-25T14:58:30.355Z,1.70
2019-03-25T15:01:01.460Z,1.13
2019-03-25T15:03:32.374Z,1.30
2019-03-25T15:06:03.245Z,1.07
2019-03-25T15:08:34.092Z,1.20
2019-03-25T15:11:04.746Z,1.70
2019-03-25T15:13:35.789Z,1.70
2019-03-25T15:16:06.914Z,1.30
2019-03-25T15:18:38.278Z,1.80
2019-03-25T15:21:09.465Z,1.60
2019-03-25T15:23:40.810Z,1.03
2019-03-25T15:26:12.120Z,2.17
2019-03-25T15:28:43.545Z,1.57
2019-03-25T15:31:14.374Z,2.10
2019-03-25T15:33:45.961Z,1.57
2019-03-25T15:36:16.661Z,1.23
2019-03-25T15:38:47.917Z,1.70
2019-03-25T15:41:19.394Z,1.80
2019-03-25T15:43:50.425Z,1.60
2019-03-25T15:46:21.581Z,1.87
2019-03-25T15:48:52.749Z,2.07
2019-03-25T15:51:23.846Z,1.90
2019-03-25T15:53:54.553Z,1.57
2019-03-25T15:56:25.685Z,2.33
2019-03-25T15:58:56.371Z,2.10
2019-03-25T16:01:27.287Z,1.83
2019-03-25T16:03:58.024Z,2.17
2019-03-25T16:06:28.780Z,2.33
2019-03-25T16:08:59.520Z,2.30
2019-03-25T16:11:30.323Z,3.27
2019-03-25T16:14:01.281Z,2.10
2019-03-25T16:16:31.956Z,2.23
2019-03-25T16:19:02.670Z,2.00
2019-03-25T16:21:33.337Z,1.70
2019-03-25T16:24:04.454Z,1.73
2019-03-25T16:26:35.225Z,1.30
2019-03-25T16:29:06.276Z,2.03
2019-03-25T16:31:37.550Z,2.90
2019-03-25T16:34:08.493Z,2.63
2019-03-25T16:36:39.732Z,2.43
2019-03-25T16:39:11.469Z,2.57
2019-03-25T16:41:42.205Z,2.37
2019-03-25T16:44:13.139Z,2.10
2019-03-25T16:46:43.863Z,2.17
2019-03-25T16:49:15.102Z,2.17
2019-03-25T16:51:45.890Z,2.20
2019-03-25T16:54:16.618Z,1.40
2019-03-25T16:56:47.326Z,1.17
2019-03-25T16:59:17.975Z,1.30
2019-03-25T17:01:49.572Z,1.10
2019-03-25T17:04:20.357Z,1.47
2019-03-25T17:06:51.179Z,1.83
2019-03-25T17:09:21.981Z,2.00
2019-03-25T17:11:52.958Z,1.20
2019-03-25T17:14:23.595Z,1.80
2019-03-25T17:16:54.559Z,1.80
2019-03-25T17:19:25.499Z,1.30
2019-03-25T17:21:58.292Z,1.87
2019-03-25T17:24:29.683Z,1.90
2019-03-25T17:27:00.794Z,1.67
2019-03-25T17:29:31.454Z,1.90
2019-03-25T17:32:02.140Z,2.07
2019-03-25T17:34:33.130Z,2.40
2019-03-25T17:37:05.853Z,2.30
2019-03-25T17:39:36.892Z,2.50
2019-03-25T17:42:07.960Z,2.63
2019-03-25T17:44:38.692Z,2.30
2019-03-25T17:47:09.844Z,1.97
2019-03-25T17:49:40.754Z,2.20
2019-03-25T17:52:11.526Z,2.20
2019-03-25T17:54:42.244Z,1.80
2019-03-25T17:57:13.238Z,2.33
2019-03-25T17:59:44.201Z,1.87
2019-03-25T18:02:14.940Z,3.30
2019-03-25T18:04:45.932Z,3.60
2019-03-25T18:07:17.225Z,4.03
2019-03-25T18:09:47.945Z,3.47
2019-03-25T18:12:19.764Z,3.27
2019-03-25T18:14:50.466Z,3.43
2019-03-25T18:17:21.201Z,3.60
2019-03-25T18:19:51.880Z,3.33
2019-03-25T18:22:22.772Z,3.23
2019-03-25T18:24:53.408Z,2.50
2019-03-25T18:27:24.402Z,2.70
2019-03-25T18:29:55.497Z,2.00
2019-03-25T18:32:26.737Z,2.10
2019-03-25T18:34:57.427Z,1.90
2019-03-25T18:37:28.101Z,1.73
2019-03-25T18:39:58.835Z,1.50
2019-03-25T18:42:29.511Z,1.50
2019-03-25T18:45:00.350Z,0.90
2019-03-25T18:47:31.304Z,1.30
2019-03-25T18:50:02.062Z,1.70
2019-03-25T18:52:32.859Z,1.73
2019-03-25T18:55:03.575Z,1.30
2019-03-25T18:57:34.300Z,1.47
2019-03-25T19:00:06.071Z,1.33
2019-03-25T19:02:37.820Z,1.73
2019-03-25T19:05:09.218Z,1.83
2019-03-25T19:07:40.007Z,2.20
2019-03-25T19:10:16.142Z,1.70
2019-03-25T19:12:47.195Z,2.20
2019-03-25T19:15:18.118Z,1.93
2019-03-25T19:17:49.142Z,1.73
2019-03-25T19:20:20.949Z,1.77
2019-03-25T19:22:51.733Z,2.17
2019-03-25T19:25:22.930Z,1.90
2019-03-25T19:27:53.797Z,1.63
2019-03-25T19:30:24.817Z,1.60
2019-03-25T19:32:55.475Z,2.43
2019-03-25T19:35:26.193Z,1.97
2019-03-25T19:37:56.873Z,2.03
2019-03-25T19:40:27.819Z,2.50
2019-03-25T19:42:58.861Z,2.07
2019-03-25T19:45:29.892Z,1.80
2019-03-25T19:48:00.561Z,1.90
2019-03-25T19:50:31.534Z,2.27
2019-03-25T19:53:02.298Z,2.80
2019-03-25T19:55:32.982Z,3.07
2019-03-25T19:58:03.749Z,3.23
2019-03-25T20:00:38.248Z,2.00
2019-03-25T20:03:09.099Z,2.83
2019-03-25T20:05:40.491Z,2.70
2019-03-25T20:08:11.633Z,2.60
2019-03-25T20:10:42.724Z,3.20
2019-03-25T20:13:13.511Z,2.87
2019-03-25T20:15:47.167Z,2.77
2019-03-25T20:18:17.952Z,3.67
2019-03-25T20:20:49.048Z,3.07
2019-03-25T20:23:20.414Z,2.70
2019-03-25T20:25:51.183Z,3.40
2019-03-25T20:28:25.375Z,3.33
2019-03-25T20:30:56.419Z,3.00
2019-03-25T20:33:27.118Z,2.80
2019-03-25T20:35:58.204Z,2.77
2019-03-25T20:38:28.909Z,2.50
2019-03-25T20:40:59.840Z,2.67
2019-03-25T20:43:30.575Z,2.87
2019-03-25T20:46:01.301Z,2.97
2019-03-25T20:48:32.306Z,3.73
2019-03-25T20:51:04.210Z,4.40
2019-03-25T20:53:36.153Z,2.70
2019-03-25T20:56:07.453Z,3.27
2019-03-25T20:58:39.006Z,3.47
2019-03-25T21:01:10.021Z,3.20
2019-03-25T21:03:40.794Z,3.27
2019-03-25T21:06:11.460Z,3.37
2019-03-25T21:08:42.140Z,3.20
2019-03-25T21:11:12.880Z,3.67
2019-03-25T21:13:43.953Z,4.20
2019-03-25T21:16:14.635Z,4.17
2019-03-25T21:18:45.699Z,3.50
2019-03-25T21:21:16.645Z,3.57
2019-03-25T21:23:47.469Z,3.40
2019-03-25T21:26:18.165Z,3.50
2019-03-25T21:28:49.207Z,3.50
2019-03-25T21:31:19.939Z,4.17
2019-03-25T21:33:50.853Z,3.80
2019-03-25T21:36:22.658Z,3.60
2019-03-25T21:38:53.366Z,3.70
2019-03-25T21:41:24.059Z,3.73
2019-03-25T21:43:55.199Z,3.60
2019-03-25T21:46:26.321Z,3.37
2019-03-25T21:48:57.307Z,3.50
2019-03-25T21:51:28.304Z,3.40
2019-03-25T21:53:59.229Z,4.10
2019-03-25T21:56:30.091Z,3.70
2019-03-25T21:59:00.829Z,3.40
2019-03-25T22:01:31.707Z,3.87
2019-03-25T22:04:02.703Z,3.93
2019-03-25T22:06:33.361Z,4.60
2019-03-25T22:09:05.470Z,3.13
2019-03-25T22:11:36.403Z,3.70
2019-03-25T22:14:07.143Z,3.80
2019-03-25T22:16:37.878Z,3.40
2019-03-25T22:19:08.896Z,4.23
2019-03-25T22:21:40.458Z,3.30
2019-03-25T22:24:11.145Z,4.20
2019-03-25T22:26:41.798Z,2.80
2019-03-25T22:29:12.744Z,4.00
2019-03-25T22:31:43.405Z,4.03
2019-03-25T22:34:14.080Z,2.93
2019-03-25T22:36:44.900Z,3.50
2019-03-25T22:39:15.683Z,3.20
2019-03-25T22:41:47.106Z,2.93
2019-03-25T22:44:18.370Z,2.47
2019-03-25T22:46:49.390Z,3.67
2019-03-25T22:49:20.065Z,2.97
2019-03-25T22:51:50.838Z,3.10
2019-03-25T22:54:21.502Z,2.87
2019-03-25T22:56:52.641Z,2.40
2019-03-25T22:59:23.306Z,2.83
2019-03-25T23:01:54.395Z,2.93
2019-03-25T23:04:25.082Z,3.33
2019-03-25T23:06:55.807Z,2.90
2019-03-25T23:09:26.495Z,2.80
2019-03-25T23:11:57.195Z,2.97
2019-03-25T23:14:27.922Z,3.20
2019-03-25T23:16:58.602Z,2.37
2019-03-25T23:19:29.299Z,2.33
2019-03-25T23:22:00.595Z,3.00
2019-03-25T23:24:31.257Z,2.47
2019-03-25T23:27:01.895Z,2.53
2019-03-25T23:29:32.837Z,2.83
2019-03-25T23:32:03.531Z,2.20
2019-03-25T23:34:34.229Z,2.97
2019-03-25T23:37:06.323Z,1.83
2019-03-25T23:39:37.020Z,2.80
2019-03-25T23:42:07.801Z,3.00
2019-03-25T23:44:38.495Z,2.70
2019-03-25T23:47:09.515Z,2.73
2019-03-25T23:49:40.198Z,2.53
2019-03-25T23:52:10.878Z,2.70
2019-03-25T23:54:41.546Z,2.50
2019-03-25T23:57:12.901Z,2.90
2019-03-25T23:59:43.951Z,2.83
